Portada
METAR-TAF:

METAR-TAF

Aeropuertos :

Tiaret, Argelia

latitud: 35-15N, longitud: 001-26E, altitud: 1127 m

Observación

El informe se hizo hace 36 minutos, a las 08:00 UTC
Viento 2 kt del sur-suroeste
Temperatura 3°C
Humedad 87%
Presión 1031 hPa
Visibilidad: 9000 m

METAR: DAOB 220800Z 20002KT 9000 NSC 03/01 Q1031

Hora: 09:36 (08:36 UTC)

Pronóstico

El informe se hizo hace 3 horas y 36 minutos, a las 05:00 UTC
Pronóstico válido del 22 a las 06 UTC al 23 a las 06 UTC
Viento 2 kt con dirección variable
Visibilidad 10 km o más
sin nubes por debajo de 1500 m y sin presencia de cumulonimbus.
Probabilidad 30% :
Temporalmente
del 22 a las 06 UTC al 22 a las 08 UTC
Visibilidad: 3000 m
neblina
Evolucionando progresivamente
del 22 a las 10 UTC al 22 a las 13 UTC
Viento 10 kt del noroeste

TAF: DAOB 220500Z 2206/2306 VRB02KT CAVOK PROB30 TEMPO 2206/2208 3000 BR BECMG 2210/2213 32010KT

Observaciones y pronósticos meteorológicos de más de 4000 aeropuertos (mensajes METAR y TAF).

Los puntos amarillos y rojos representan las estaciones disponibles.

Ponga el ratón en el punto deseado para ver el nombre de la estación.

Haga clic para ver las observaciones y los pronósticos meteorológicos.

Para cambiar el mapa : haga clic en los botones verdes con una cruz de color negro para hacer un zoom, en el botón verde con un guión para alejar o en las flechas verdes para mapas adyacentes.


METAR-TAF: